EPWA

Warsaw Chopin Airport

Warsaw, Poland
METAR EPWA 230830Z 05008KT 350V090 CAVOK 21/11 Q1021 NOSIG
Observed Flight Rules
May-23 @ 08:30 UTC (21 minutes ago) Visual Flight Rules
Wind Visibility Clouds
50° at 8 knots 10,000+ meters
  • Clear skies
Temperatures Readings
Current 21°C / 70°F
Dewpoint 11°C / 52°F
Humidity 53%
Altimeter 30.15" Hg
Pressure 1021 hPa
Elevation 107
METAR EPWA 230830Z 05008KT 350V090 CAVOK 21/11 Q1021 NOSIG
Observed Flight Rules
May-23 @ 08:30 UTC
(21 minutes ago)
VFR
Wind Visibility
50° at 8 knots 10,000+ meters
Clouds
  • Clear skies
Temperature Dewpoint
21°C / 70°F 11°C / 52°F
Humidity Altimeter Pressure
53% 30.15" Hg 1021 hPa